createdAt,value
2022-12-15T00:00:06.302Z,13.00
2022-12-15T00:01:05.335Z,13.21
2022-12-15T00:02:05.324Z,13.21
2022-12-15T00:03:05.389Z,13.27
2022-12-15T00:04:05.298Z,13.21
2022-12-15T00:05:05.244Z,13.05
2022-12-15T00:06:05.222Z,12.78
2022-12-15T00:07:05.243Z,13.21
2022-12-15T00:08:05.211Z,13.27
2022-12-15T00:09:08.439Z,13.54
2022-12-15T00:10:06.181Z,13.00
2022-12-15T00:11:05.165Z,13.16
2022-12-15T00:12:05.160Z,13.05
2022-12-15T00:13:05.151Z,13.21
2022-12-15T00:14:05.123Z,13.21
2022-12-15T00:15:05.112Z,13.16
2022-12-15T00:16:05.150Z,13.21
2022-12-15T00:17:05.094Z,12.84
2022-12-15T00:18:05.093Z,13.16
2022-12-15T00:19:05.074Z,13.16
2022-12-15T00:20:05.049Z,12.62
2022-12-15T00:21:05.031Z,13.21
2022-12-15T00:22:05.030Z,13.05
2022-12-15T00:23:05.033Z,13.00
2022-12-15T00:24:04.994Z,12.78
2022-12-15T00:25:04.981Z,13.32
2022-12-15T00:26:04.974Z,13.21
2022-12-15T00:27:04.957Z,13.00
2022-12-15T00:28:05.014Z,13.37
2022-12-15T00:29:04.924Z,13.05
2022-12-15T00:30:04.930Z,13.37
2022-12-15T00:31:05.021Z,13.37
2022-12-15T00:32:04.891Z,13.16
2022-12-15T00:33:04.890Z,13.16
2022-12-15T00:34:04.872Z,13.05
2022-12-15T00:35:04.864Z,13.27
2022-12-15T00:36:04.852Z,13.21
2022-12-15T00:37:04.850Z,13.27
2022-12-15T00:38:04.821Z,13.00
2022-12-15T00:39:04.800Z,13.05
2022-12-15T00:40:04.790Z,12.62
2022-12-15T00:41:04.771Z,12.68
2022-12-15T00:42:04.785Z,13.21
2022-12-15T00:43:04.752Z,13.11
2022-12-15T00:44:04.741Z,12.84
2022-12-15T00:45:04.720Z,12.94
2022-12-15T00:46:04.779Z,13.27
2022-12-15T00:47:04.799Z,13.16
2022-12-15T00:48:04.694Z,13.21
2022-12-15T00:49:04.671Z,13.27
2022-12-15T00:50:04.667Z,12.57
2022-12-15T00:51:04.650Z,13.05
2022-12-15T00:52:04.650Z,13.05
2022-12-15T00:53:04.620Z,13.00
2022-12-15T00:54:04.618Z,12.51
2022-12-15T00:55:04.591Z,12.94
2022-12-15T00:56:04.589Z,13.05
2022-12-15T00:57:04.580Z,13.05
2022-12-15T00:58:04.589Z,13.16
2022-12-15T00:59:04.539Z,12.73
2022-12-15T01:00:04.530Z,12.62
2022-12-15T01:01:04.510Z,12.78
2022-12-15T01:02:04.650Z,13.21
2022-12-15T01:03:04.742Z,13.11
2022-12-15T01:04:04.537Z,12.78
2022-12-15T01:05:04.466Z,13.00
2022-12-15T01:06:04.459Z,13.00
2022-12-15T01:07:04.439Z,13.21
2022-12-15T01:08:04.429Z,13.21
2022-12-15T01:09:04.418Z,13.21
2022-12-15T01:10:04.409Z,13.21
2022-12-15T01:11:04.386Z,13.16
2022-12-15T01:12:04.398Z,13.16
2022-12-15T01:13:04.358Z,12.78
2022-12-15T01:14:04.351Z,13.16
2022-12-15T01:15:04.337Z,12.84
2022-12-15T01:16:04.363Z,13.21
2022-12-15T01:17:04.308Z,12.57
2022-12-15T01:18:04.318Z,12.62
2022-12-15T01:19:04.278Z,12.62
2022-12-15T01:20:04.278Z,13.05
2022-12-15T01:21:04.257Z,13.00
2022-12-15T01:22:04.248Z,12.84
2022-12-15T01:23:04.259Z,12.78
2022-12-15T01:24:04.227Z,13.11
2022-12-15T01:25:04.210Z,13.05
2022-12-15T01:26:04.208Z,12.62
2022-12-15T01:27:04.177Z,12.73
2022-12-15T01:28:04.201Z,12.68
2022-12-15T01:29:04.147Z,13.16
2022-12-15T01:30:04.147Z,13.11
2022-12-15T01:31:04.140Z,13.16
2022-12-15T01:32:04.127Z,12.68
2022-12-15T01:33:04.117Z,13.16
2022-12-15T01:34:04.127Z,13.16
2022-12-15T01:35:04.081Z,13.21
2022-12-15T01:36:04.066Z,12.62
2022-12-15T01:37:04.048Z,13.16
2022-12-15T01:38:04.065Z,13.21
2022-12-15T01:39:04.029Z,13.00
2022-12-15T01:40:04.017Z,13.16
2022-12-15T01:41:03.999Z,12.84
2022-12-15T01:42:04.001Z,12.62
2022-12-15T01:43:03.987Z,12.62
2022-12-15T01:44:03.957Z,13.00
2022-12-15T01:45:03.972Z,12.89
2022-12-15T01:46:03.935Z,12.68
2022-12-15T01:47:03.971Z,12.62
2022-12-15T01:48:03.938Z,12.62
2022-12-15T01:49:03.894Z,13.16
2022-12-15T01:50:03.880Z,13.11
2022-12-15T01:51:03.875Z,13.21
2022-12-15T01:52:03.859Z,13.00
2022-12-15T01:53:03.835Z,13.05
2022-12-15T01:54:03.862Z,13.11
2022-12-15T01:55:03.831Z,12.62
2022-12-15T01:56:03.807Z,13.11
2022-12-15T01:57:03.796Z,12.62
2022-12-15T01:58:03.795Z,13.21
2022-12-15T01:59:03.788Z,12.84
2022-12-15T02:00:03.764Z,12.62
2022-12-15T02:01:03.784Z,13.11
2022-12-15T02:02:03.867Z,13.05
2022-12-15T02:03:03.799Z,12.68
2022-12-15T02:04:03.731Z,12.89
2022-12-15T02:05:03.696Z,13.11
2022-12-15T02:06:03.683Z,13.00
2022-12-15T02:07:03.662Z,13.16
2022-12-15T02:08:03.659Z,13.00
2022-12-15T02:09:03.646Z,12.57
2022-12-15T02:10:03.624Z,12.62
2022-12-15T02:11:03.614Z,13.05
2022-12-15T02:12:03.605Z,12.84
2022-12-15T02:13:03.586Z,12.94
2022-12-15T02:14:03.606Z,13.21
2022-12-15T02:15:03.561Z,13.00
2022-12-15T02:16:03.661Z,12.62
2022-12-15T02:17:03.537Z,13.16
2022-12-15T02:18:03.527Z,12.62
2022-12-15T02:19:03.532Z,12.68
2022-12-15T02:20:03.501Z,13.00
2022-12-15T02:21:03.476Z,13.11
2022-12-15T02:22:03.491Z,13.16
2022-12-15T02:23:03.468Z,13.21
2022-12-15T02:24:03.477Z,13.05
2022-12-15T02:25:03.445Z,12.89
2022-12-15T02:26:03.425Z,13.00
2022-12-15T02:27:03.412Z,13.16
2022-12-15T02:28:03.403Z,13.00
2022-12-15T02:29:03.400Z,12.84
2022-12-15T02:30:03.363Z,13.00
2022-12-15T02:31:03.355Z,12.57
2022-12-15T02:32:03.460Z,13.00
2022-12-15T02:33:03.335Z,12.51
2022-12-15T02:34:03.348Z,13.16
2022-12-15T02:35:03.304Z,13.05
2022-12-15T02:36:03.293Z,12.84
2022-12-15T02:37:03.275Z,13.00
2022-12-15T02:38:03.276Z,13.00
2022-12-15T02:39:03.285Z,12.62
2022-12-15T02:40:03.258Z,13.05
2022-12-15T02:41:03.235Z,12.84
2022-12-15T02:42:03.212Z,12.62
2022-12-15T02:43:03.233Z,13.21
2022-12-15T02:44:03.214Z,13.00
2022-12-15T02:45:03.174Z,12.78
2022-12-15T02:46:03.234Z,13.00
2022-12-15T02:47:03.146Z,12.62
2022-12-15T02:48:03.155Z,13.11
2022-12-15T02:49:03.154Z,12.78
2022-12-15T02:50:03.124Z,12.62
2022-12-15T02:51:03.093Z,13.21
2022-12-15T02:52:03.092Z,13.21
2022-12-15T02:53:03.072Z,12.62
2022-12-15T02:54:03.090Z,13.16
2022-12-15T02:55:03.043Z,12.73
2022-12-15T02:56:03.054Z,13.16
2022-12-15T02:57:03.022Z,12.84
2022-12-15T02:58:03.024Z,12.62
2022-12-15T02:59:03.014Z,13.05
2022-12-15T03:00:03.017Z,12.68
2022-12-15T03:01:03.027Z,12.78
2022-12-15T03:02:03.118Z,13.21
2022-12-15T03:03:03.043Z,13.00
2022-12-15T03:04:02.950Z,12.62
2022-12-15T03:05:02.921Z,13.00
2022-12-15T03:06:02.902Z,13.16
2022-12-15T03:07:02.892Z,12.78
2022-12-15T03:08:02.891Z,13.27
2022-12-15T03:09:02.883Z,12.68
2022-12-15T03:10:02.863Z,12.78
2022-12-15T03:11:02.842Z,12.62
2022-12-15T03:12:02.833Z,12.84
2022-12-15T03:13:02.831Z,13.05
2022-12-15T03:14:02.812Z,13.16
2022-12-15T03:15:02.797Z,12.78
2022-12-15T03:16:02.885Z,12.78
2022-12-15T03:17:02.772Z,13.00
2022-12-15T03:18:02.787Z,12.78
2022-12-15T03:19:02.737Z,13.00
2022-12-15T03:20:02.730Z,12.89
2022-12-15T03:21:02.725Z,13.05
2022-12-15T03:22:02.704Z,13.11
2022-12-15T03:23:02.681Z,13.16
2022-12-15T03:24:02.698Z,13.27
2022-12-15T03:25:02.669Z,12.78
2022-12-15T03:26:02.655Z,13.05
2022-12-15T03:27:02.658Z,12.68
2022-12-15T03:28:02.624Z,13.16
2022-12-15T03:29:02.623Z,12.62
2022-12-15T03:30:02.628Z,12.78
2022-12-15T03:31:02.593Z,13.00
2022-12-15T03:32:02.680Z,13.00
2022-12-15T03:33:02.581Z,13.21
2022-12-15T03:34:02.585Z,12.78
2022-12-15T03:35:02.550Z,12.62
2022-12-15T03:36:02.557Z,12.68
2022-12-15T03:37:02.513Z,12.78
2022-12-15T03:38:02.519Z,13.11
2022-12-15T03:39:02.502Z,12.84
2022-12-15T03:40:02.482Z,12.78
2022-12-15T03:41:02.465Z,12.84
2022-12-15T03:42:02.458Z,13.00
2022-12-15T03:43:02.430Z,12.62
2022-12-15T03:44:02.440Z,12.84
2022-12-15T03:45:02.409Z,13.00
2022-12-15T03:46:02.476Z,13.00
2022-12-15T03:47:03.811Z,12.68
2022-12-15T03:48:02.394Z,12.62
2022-12-15T03:49:02.349Z,13.16
2022-12-15T03:50:02.366Z,12.84
2022-12-15T03:51:02.331Z,12.78
2022-12-15T03:52:02.324Z,12.84
2022-12-15T03:53:02.325Z,12.84
2022-12-15T03:54:02.288Z,12.68
2022-12-15T03:55:02.279Z,12.78
2022-12-15T03:56:02.271Z,13.21
2022-12-15T03:57:02.260Z,12.73
2022-12-15T03:58:02.264Z,13.27
2022-12-15T03:59:02.228Z,12.57
2022-12-15T04:00:02.209Z,12.78
2022-12-15T04:01:02.264Z,12.84
2022-12-15T04:02:02.377Z,13.21
2022-12-15T04:03:02.245Z,12.62
2022-12-15T04:04:02.257Z,12.78
2022-12-15T04:05:02.149Z,13.00
2022-12-15T04:06:02.160Z,13.00
2022-12-15T04:07:02.128Z,12.57
2022-12-15T04:08:02.128Z,12.68
2022-12-15T04:09:02.109Z,12.84
2022-12-15T04:10:02.097Z,12.78
2022-12-15T04:11:02.099Z,12.78
2022-12-15T04:12:02.077Z,12.41
2022-12-15T04:13:02.071Z,12.84
2022-12-15T04:14:02.039Z,13.21
2022-12-15T04:15:02.027Z,12.84
2022-12-15T04:16:02.016Z,13.16
2022-12-15T04:17:02.048Z,13.21
2022-12-15T04:18:01.988Z,13.00
2022-12-15T04:19:01.996Z,12.57
2022-12-15T04:20:01.955Z,12.68
2022-12-15T04:21:01.947Z,12.62
2022-12-15T04:22:01.937Z,12.62
2022-12-15T04:23:01.938Z,13.00
2022-12-15T04:24:01.926Z,12.41
2022-12-15T04:25:01.894Z,12.46
2022-12-15T04:26:01.875Z,12.51
2022-12-15T04:27:01.880Z,12.62
2022-12-15T04:28:02.049Z,12.57
2022-12-15T04:29:01.857Z,12.78
2022-12-15T04:30:01.826Z,12.46
2022-12-15T04:31:01.903Z,12.30
2022-12-15T04:32:01.807Z,12.62
2022-12-15T04:33:01.807Z,12.68
2022-12-15T04:34:01.776Z,13.05
2022-12-15T04:35:01.774Z,13.05
2022-12-15T04:36:01.746Z,12.62
2022-12-15T04:37:01.750Z,12.62
2022-12-15T04:38:01.737Z,12.51
2022-12-15T04:39:01.719Z,13.21
2022-12-15T04:40:01.697Z,12.68
2022-12-15T04:41:01.707Z,13.16
2022-12-15T04:42:01.678Z,12.57
2022-12-15T04:43:01.686Z,12.57
2022-12-15T04:44:01.645Z,12.57
2022-12-15T04:45:01.646Z,12.62
2022-12-15T04:46:01.651Z,12.78
2022-12-15T04:47:01.620Z,13.05
2022-12-15T04:48:01.606Z,12.46
2022-12-15T04:49:01.593Z,12.68
2022-12-15T04:50:01.585Z,12.84
2022-12-15T04:51:01.566Z,13.27
2022-12-15T04:52:01.545Z,12.46
2022-12-15T04:53:01.555Z,12.62
2022-12-15T04:54:01.525Z,12.62
2022-12-15T04:55:01.524Z,12.62
2022-12-15T04:56:01.495Z,12.46
2022-12-15T04:57:01.492Z,12.46
2022-12-15T04:58:01.491Z,12.73
2022-12-15T04:59:01.463Z,12.51
2022-12-15T05:00:01.443Z,12.62
2022-12-15T05:01:01.465Z,13.00
2022-12-15T05:02:01.562Z,12.62
2022-12-15T05:03:01.428Z,12.62
2022-12-15T05:04:01.414Z,12.62
2022-12-15T05:05:01.384Z,12.78
2022-12-15T05:06:01.371Z,12.41
2022-12-15T05:07:01.359Z,12.57
2022-12-15T05:08:01.375Z,12.46
2022-12-15T05:09:01.344Z,12.57
2022-12-15T05:10:03.540Z,12.78
2022-12-15T05:11:01.323Z,12.78
2022-12-15T05:12:01.291Z,12.41
2022-12-15T05:13:01.287Z,12.62
2022-12-15T05:14:01.264Z,12.51
2022-12-15T05:15:01.268Z,12.73
2022-12-15T05:16:01.309Z,12.62
2022-12-15T05:17:01.323Z,12.46
2022-12-15T05:18:01.216Z,12.62
2022-12-15T05:19:01.202Z,12.62
2022-12-15T05:20:01.183Z,12.62
2022-12-15T05:21:01.201Z,12.78
2022-12-15T05:22:01.174Z,12.62
2022-12-15T05:23:01.162Z,12.78
2022-12-15T05:24:01.143Z,12.62
2022-12-15T05:25:01.131Z,12.51
2022-12-15T05:26:01.146Z,12.51
2022-12-15T05:27:01.104Z,12.57
2022-12-15T05:28:01.084Z,12.41
2022-12-15T05:29:01.072Z,12.62
2022-12-15T05:30:01.080Z,12.46
2022-12-15T05:31:01.140Z,12.25
2022-12-15T05:32:01.034Z,12.62
2022-12-15T05:33:01.043Z,12.46
2022-12-15T05:34:05.054Z,12.68
2022-12-15T05:35:01.004Z,12.84
2022-12-15T05:36:01.023Z,12.57
2022-12-15T05:37:00.992Z,12.57
2022-12-15T05:38:00.977Z,12.46
2022-12-15T05:39:00.954Z,12.62
2022-12-15T05:40:00.934Z,12.73
2022-12-15T05:41:00.931Z,12.68
2022-12-15T05:42:00.905Z,12.62
2022-12-15T05:43:00.938Z,12.57
2022-12-15T05:44:00.893Z,12.78
2022-12-15T05:45:00.890Z,12.62
2022-12-15T05:46:00.900Z,12.78
2022-12-15T05:47:00.855Z,12.62
2022-12-15T05:48:00.878Z,12.84
2022-12-15T05:49:00.824Z,12.46
2022-12-15T05:50:00.803Z,12.62
2022-12-15T05:51:00.792Z,12.62
2022-12-15T05:52:00.780Z,12.84
2022-12-15T05:53:00.827Z,12.46
2022-12-15T05:54:00.752Z,12.73
2022-12-15T05:55:00.742Z,12.41
2022-12-15T05:56:00.738Z,12.46
2022-12-15T05:57:00.721Z,12.68
2022-12-15T05:58:00.745Z,12.46
2022-12-15T05:59:00.699Z,12.84
2022-12-15T06:00:00.680Z,12.78
2022-12-15T06:01:00.677Z,12.46
2022-12-15T06:02:00.761Z,12.62
2022-12-15T06:03:00.711Z,12.78
2022-12-15T06:04:00.621Z,12.46
2022-12-15T06:05:00.700Z,12.46
2022-12-15T06:06:00.600Z,12.46
2022-12-15T06:07:00.590Z,12.62
2022-12-15T06:08:00.582Z,12.19
2022-12-15T06:09:00.587Z,12.78
2022-12-15T06:10:00.550Z,12.41
2022-12-15T06:11:00.540Z,12.51
2022-12-15T06:12:00.528Z,12.68
2022-12-15T06:13:00.510Z,12.62
2022-12-15T06:14:00.526Z,12.46
2022-12-15T06:15:00.484Z,12.78
2022-12-15T06:16:00.510Z,12.46
2022-12-15T06:17:00.571Z,12.84
2022-12-15T06:18:00.452Z,12.78
2022-12-15T06:19:00.451Z,12.78
2022-12-15T06:20:00.421Z,12.62
2022-12-15T06:21:00.409Z,12.62
2022-12-15T06:22:00.409Z,12.51
2022-12-15T06:23:00.381Z,12.62
2022-12-15T06:24:00.381Z,12.57
2022-12-15T06:25:00.351Z,12.62
2022-12-15T06:26:00.377Z,12.25
2022-12-15T06:27:00.351Z,12.51
2022-12-15T06:28:02.035Z,12.62
2022-12-15T06:29:00.309Z,12.25
2022-12-15T06:30:00.301Z,12.84
2022-12-15T06:31:00.315Z,12.51
2022-12-15T06:32:00.279Z,12.46
2022-12-15T06:33:00.249Z,12.78
2022-12-15T06:34:02.301Z,12.41
2022-12-15T06:35:00.262Z,12.57
2022-12-15T06:36:00.209Z,12.41
2022-12-15T06:37:00.231Z,12.46
2022-12-15T06:38:00.191Z,12.46
2022-12-15T06:39:00.171Z,12.62
2022-12-15T06:40:00.159Z,12.62
2022-12-15T06:41:00.160Z,12.57
2022-12-15T06:42:00.151Z,12.78
2022-12-15T06:43:00.137Z,12.62
2022-12-15T06:44:00.142Z,12.46
2022-12-15T06:45:00.099Z,12.89
2022-12-15T06:46:00.103Z,12.57
2022-12-15T06:47:00.222Z,12.14
2022-12-15T06:48:01.715Z,12.62
2022-12-15T06:49:00.049Z,12.14
2022-12-15T06:50:00.046Z,12.41
2022-12-15T06:51:00.036Z,12.62
2022-12-15T06:52:00.021Z,12.51
2022-12-15T06:52:59.990Z,12.78
2022-12-15T06:53:59.988Z,12.62
2022-12-15T06:54:59.979Z,12.08
2022-12-15T06:55:59.959Z,12.08
2022-12-15T06:56:59.978Z,12.41
2022-12-15T06:57:59.926Z,12.78
2022-12-15T06:58:59.960Z,12.68
2022-12-15T06:59:59.922Z,12.62
2022-12-15T07:00:59.908Z,12.46
2022-12-15T07:02:00.071Z,12.51
2022-12-15T07:03:00.082Z,12.84
2022-12-15T07:04:00.140Z,12.46
2022-12-15T07:04:59.850Z,12.46
2022-12-15T07:05:59.827Z,12.46
2022-12-15T07:06:59.827Z,12.62
2022-12-15T07:07:59.812Z,12.25
2022-12-15T07:08:59.790Z,12.57
2022-12-15T07:09:59.770Z,12.41
2022-12-15T07:10:59.768Z,12.62
2022-12-15T07:11:59.763Z,12.14
2022-12-15T07:12:59.744Z,12.62
2022-12-15T07:13:59.730Z,12.41
2022-12-15T07:14:59.706Z,12.08
2022-12-15T07:15:59.727Z,12.19
2022-12-15T07:16:59.705Z,12.25
2022-12-15T07:17:59.667Z,12.25
2022-12-15T07:18:59.677Z,12.68
2022-12-15T07:19:59.656Z,12.51
2022-12-15T07:20:59.640Z,12.84
2022-12-15T07:21:59.641Z,12.19
2022-12-15T07:22:59.610Z,12.19
2022-12-15T07:24:00.545Z,12.62
2022-12-15T07:24:59.586Z,12.62
2022-12-15T07:25:59.564Z,12.03
2022-12-15T07:26:59.627Z,12.68
2022-12-15T07:27:59.555Z,12.68
2022-12-15T07:28:59.534Z,12.68
2022-12-15T07:29:59.525Z,12.57
2022-12-15T07:30:59.506Z,11.87
2022-12-15T07:31:59.525Z,12.62
2022-12-15T07:32:59.498Z,12.25
2022-12-15T07:33:59.465Z,12.51
2022-12-15T07:34:59.447Z,12.57
2022-12-15T07:35:59.438Z,12.57
2022-12-15T07:36:59.433Z,12.30
2022-12-15T07:37:59.425Z,12.51
2022-12-15T07:38:59.404Z,12.08
2022-12-15T07:39:59.390Z,12.46
2022-12-15T07:40:59.402Z,12.84
2022-12-15T07:41:59.377Z,12.62
2022-12-15T07:42:59.366Z,12.03
2022-12-15T07:43:59.345Z,12.84
2022-12-15T07:44:59.326Z,12.14
2022-12-15T07:45:59.383Z,12.30
2022-12-15T07:46:59.309Z,12.68
2022-12-15T07:47:59.303Z,11.82
2022-12-15T07:48:59.277Z,12.57
2022-12-15T07:49:59.255Z,12.30
2022-12-15T07:51:07.492Z,12.19
2022-12-15T07:52:00.246Z,12.08
2022-12-15T07:52:59.245Z,12.41
2022-12-15T07:53:59.249Z,12.14
2022-12-15T07:54:59.199Z,12.03
2022-12-15T07:56:07.523Z,12.46
2022-12-15T07:57:00.178Z,12.25
2022-12-15T07:57:59.184Z,12.08
2022-12-15T07:58:59.144Z,12.19
2022-12-15T07:59:59.166Z,12.46
2022-12-15T08:00:59.188Z,12.78
2022-12-15T08:01:59.280Z,12.62
2022-12-15T08:02:59.274Z,12.41
2022-12-15T08:03:59.111Z,12.46
2022-12-15T08:04:59.074Z,12.25
2022-12-15T08:06:03.934Z,12.19
2022-12-15T08:07:00.058Z,12.25
2022-12-15T08:07:59.046Z,12.51
2022-12-15T08:08:59.018Z,12.03
2022-12-15T08:09:59.004Z,12.62
2022-12-15T08:10:59.015Z,12.03
2022-12-15T08:11:58.983Z,12.41
2022-12-15T08:12:59.117Z,12.62
2022-12-15T08:14:04.064Z,12.08
2022-12-15T08:14:59.948Z,12.94
2022-12-15T08:15:58.959Z,12.25
2022-12-15T08:16:58.953Z,12.41
2022-12-15T08:17:58.927Z,12.08
2022-12-15T08:18:58.889Z,12.62
2022-12-15T08:19:59.117Z,11.82
2022-12-15T08:20:58.867Z,12.08
2022-12-15T08:21:58.856Z,12.03
2022-12-15T08:22:58.843Z,12.08
2022-12-15T08:23:58.845Z,12.62
2022-12-15T08:24:58.815Z,12.25
2022-12-15T08:25:58.796Z,12.41
2022-12-15T08:26:58.774Z,12.25
2022-12-15T08:27:58.775Z,12.14
2022-12-15T08:29:17.364Z,12.68
2022-12-15T08:29:59.742Z,12.03
2022-12-15T08:30:58.733Z,12.41
2022-12-15T08:31:58.894Z,12.41
2022-12-15T08:32:58.731Z,12.03
2022-12-15T08:33:58.703Z,12.62
2022-12-15T08:34:58.684Z,12.03
2022-12-15T08:35:58.675Z,12.62
2022-12-15T08:36:58.668Z,12.08
2022-12-15T08:38:02.323Z,12.03
2022-12-15T08:38:59.644Z,12.35
2022-12-15T08:39:58.616Z,12.25
2022-12-15T08:40:58.627Z,12.08
2022-12-15T08:41:58.583Z,12.08
2022-12-15T08:42:58.575Z,12.19
2022-12-15T08:43:58.595Z,12.51
2022-12-15T08:44:58.571Z,12.41
2022-12-15T08:45:58.599Z,11.92
2022-12-15T08:46:58.524Z,12.62
2022-12-15T08:47:58.513Z,12.14
2022-12-15T08:48:58.524Z,12.51
2022-12-15T08:49:58.484Z,12.03
2022-12-15T08:50:58.474Z,12.57
2022-12-15T08:51:58.463Z,12.03
2022-12-15T08:53:28.898Z,12.08
2022-12-15T08:53:59.462Z,12.46
2022-12-15T08:54:58.414Z,12.51
2022-12-15T08:55:58.414Z,12.19
2022-12-15T08:56:58.395Z,12.62
2022-12-15T08:57:58.383Z,11.92
2022-12-15T08:58:58.409Z,12.03
2022-12-15T08:59:58.366Z,11.98
2022-12-15T09:00:58.390Z,12.19
2022-12-15T09:01:58.439Z,12.46
2022-12-15T09:02:58.504Z,12.08
2022-12-15T09:03:58.429Z,12.25
2022-12-15T09:04:58.302Z,12.08
2022-12-15T09:05:58.282Z,11.87
2022-12-15T09:06:58.264Z,12.46
2022-12-15T09:08:03.067Z,12.19
2022-12-15T09:08:59.255Z,12.41
2022-12-15T09:09:58.230Z,12.14
2022-12-15T09:10:58.214Z,12.19
2022-12-15T09:11:58.223Z,12.19
2022-12-15T09:12:58.201Z,12.30
2022-12-15T09:13:58.205Z,12.14
2022-12-15T09:14:58.162Z,12.03
2022-12-15T09:16:13.482Z,12.03
2022-12-15T09:16:59.242Z,12.68
2022-12-15T09:17:58.131Z,12.08
2022-12-15T09:18:58.154Z,12.03
2022-12-15T09:19:58.114Z,12.14
2022-12-15T09:20:58.090Z,12.03
2022-12-15T09:21:58.099Z,12.62
2022-12-15T09:22:58.062Z,12.25
2022-12-15T09:23:58.073Z,12.62
2022-12-15T09:24:58.021Z,12.25
2022-12-15T09:25:58.027Z,12.62
2022-12-15T09:26:58.003Z,12.08
2022-12-15T09:27:58.005Z,12.25
2022-12-15T09:28:58.028Z,12.62
2022-12-15T09:29:57.979Z,12.08
2022-12-15T09:30:57.982Z,12.19
2022-12-15T09:31:57.960Z,12.14
2022-12-15T09:32:57.922Z,12.68
2022-12-15T09:33:57.931Z,12.46
2022-12-15T09:34:57.922Z,12.51
2022-12-15T09:35:57.891Z,12.08
2022-12-15T09:36:57.877Z,12.08
2022-12-15T09:37:57.871Z,12.14
2022-12-15T09:38:57.892Z,12.19
2022-12-15T09:39:57.864Z,12.14
2022-12-15T09:40:57.823Z,12.14
2022-12-15T09:41:57.812Z,12.14
2022-12-15T09:43:25.809Z,12.19
2022-12-15T09:43:58.813Z,12.25
2022-12-15T09:44:57.783Z,12.62
2022-12-15T09:45:57.833Z,12.51
2022-12-15T09:46:57.744Z,12.03
2022-12-15T09:47:57.755Z,12.46
2022-12-15T09:48:57.744Z,12.25
2022-12-15T09:49:57.715Z,11.98
2022-12-15T09:50:58.525Z,11.87
2022-12-15T09:51:57.749Z,12.62
2022-12-15T09:52:57.675Z,12.03
2022-12-15T09:53:58.132Z,12.46
2022-12-15T09:54:57.731Z,12.08
2022-12-15T09:55:57.640Z,12.03
2022-12-15T09:56:57.628Z,12.57
2022-12-15T09:57:57.613Z,12.62
2022-12-15T09:58:57.592Z,11.87
2022-12-15T09:59:57.614Z,12.03
2022-12-15T10:00:57.583Z,12.19
2022-12-15T10:01:57.691Z,12.25
2022-12-15T10:02:57.625Z,11.82
2022-12-15T10:03:57.678Z,12.14
2022-12-15T10:04:57.589Z,12.03
2022-12-15T10:06:58.503Z,12.41
2022-12-15T10:07:57.485Z,12.41
2022-12-15T10:08:57.491Z,11.82
2022-12-15T10:09:57.504Z,12.25
2022-12-15T10:10:57.445Z,12.19
2022-12-15T10:11:57.436Z,12.08
2022-12-15T10:13:04.441Z,12.19
2022-12-15T10:13:57.409Z,12.19
2022-12-15T10:14:57.409Z,12.08
2022-12-15T10:15:57.446Z,11.98
2022-12-15T10:16:57.360Z,12.46
2022-12-15T10:17:57.357Z,11.87
2022-12-15T10:19:01.195Z,12.30
2022-12-15T10:19:57.358Z,12.03
2022-12-15T10:20:57.309Z,12.08
2022-12-15T10:21:57.310Z,11.92
2022-12-15T10:22:57.289Z,12.19
2022-12-15T10:23:57.392Z,11.82
2022-12-15T10:25:58.248Z,12.03
2022-12-15T10:26:57.242Z,12.19
2022-12-15T10:27:57.237Z,11.92
2022-12-15T10:28:57.210Z,12.19
2022-12-15T10:29:57.236Z,12.46
2022-12-15T10:30:57.238Z,12.03
2022-12-15T10:31:57.179Z,12.25
2022-12-15T10:32:57.152Z,11.98
2022-12-15T10:33:57.153Z,11.92
2022-12-15T10:34:57.176Z,12.62
2022-12-15T10:35:57.119Z,12.25
2022-12-15T10:36:57.099Z,12.08
2022-12-15T10:37:57.088Z,12.19
2022-12-15T10:38:57.070Z,11.92
2022-12-15T10:39:57.081Z,12.14
2022-12-15T10:40:57.074Z,11.76
2022-12-15T10:41:57.039Z,11.98
2022-12-15T10:42:57.021Z,12.25
2022-12-15T10:43:57.007Z,12.14
2022-12-15T10:44:57.009Z,11.87
2022-12-15T10:45:57.053Z,12.19
2022-12-15T10:46:56.967Z,12.08
2022-12-15T10:47:56.958Z,12.14
2022-12-15T10:48:56.937Z,12.14
2022-12-15T10:49:56.952Z,11.82
2022-12-15T10:50:56.910Z,11.82
2022-12-15T10:51:56.907Z,12.03
2022-12-15T10:52:56.899Z,12.03
2022-12-15T10:53:56.892Z,12.03
2022-12-15T10:54:56.880Z,12.14
2022-12-15T10:55:56.850Z,12.14
2022-12-15T10:56:56.836Z,12.08
2022-12-15T10:57:56.826Z,11.98
2022-12-15T10:58:56.808Z,11.87
2022-12-15T10:59:56.828Z,12.41
2022-12-15T11:00:56.780Z,12.30
2022-12-15T11:01:56.860Z,12.25
2022-12-15T11:02:56.883Z,12.03
2022-12-15T11:03:56.940Z,11.87
2022-12-15T11:04:56.741Z,11.71
2022-12-15T11:05:56.727Z,12.25
2022-12-15T11:06:56.698Z,11.87
2022-12-15T11:07:56.690Z,11.87
2022-12-15T11:08:56.666Z,12.03
2022-12-15T11:09:56.676Z,12.35
2022-12-15T11:10:56.647Z,12.14
2022-12-15T11:11:56.637Z,12.03
2022-12-15T11:12:59.578Z,11.82
2022-12-15T11:13:56.607Z,11.87
2022-12-15T11:14:56.607Z,11.76
2022-12-15T11:15:56.636Z,12.03
2022-12-15T11:16:56.567Z,11.98
2022-12-15T11:17:56.570Z,12.41
2022-12-15T11:18:56.536Z,12.08
2022-12-15T11:20:02.049Z,11.82
2022-12-15T11:20:57.521Z,12.25
2022-12-15T11:21:56.506Z,11.87
2022-12-15T11:22:56.485Z,11.98
2022-12-15T11:23:56.484Z,11.87
2022-12-15T11:24:56.477Z,12.08
2022-12-15T11:25:58.108Z,11.82
2022-12-15T11:26:56.436Z,12.03
2022-12-15T11:27:56.427Z,11.87
2022-12-15T11:28:56.407Z,12.08
2022-12-15T11:29:56.416Z,12.30
2022-12-15T11:30:56.379Z,11.87
2022-12-15T11:31:59.987Z,12.08
2022-12-15T11:32:57.354Z,11.92
2022-12-15T11:33:56.338Z,11.92
2022-12-15T11:34:56.356Z,11.87
2022-12-15T11:35:56.324Z,12.03
2022-12-15T11:36:56.296Z,12.03
2022-12-15T11:37:56.295Z,11.92
2022-12-15T11:38:56.306Z,12.08
2022-12-15T11:39:56.299Z,11.98
2022-12-15T11:40:56.281Z,12.08
2022-12-15T11:41:56.235Z,11.92
2022-12-15T11:42:56.221Z,11.98
2022-12-15T11:43:58.769Z,11.92
2022-12-15T11:44:56.215Z,12.08
2022-12-15T11:45:56.186Z,12.25
2022-12-15T11:46:56.167Z,12.03
2022-12-15T11:47:56.168Z,12.03
2022-12-15T11:48:56.137Z,11.92
2022-12-15T11:49:56.146Z,12.03
2022-12-15T11:50:56.121Z,11.98
2022-12-15T11:51:56.106Z,12.19
2022-12-15T11:52:56.084Z,12.03
2022-12-15T11:53:56.079Z,12.08
2022-12-15T11:54:56.087Z,12.03
2022-12-15T11:55:56.052Z,11.92
2022-12-15T11:56:56.039Z,11.82
2022-12-15T11:57:56.036Z,12.03
2022-12-15T11:58:56.006Z,12.19
2022-12-15T11:59:56.025Z,11.87
2022-12-15T12:00:55.975Z,11.87
2022-12-15T12:02:02.716Z,12.03
2022-12-15T12:02:57.001Z,12.14
2022-12-15T12:03:55.944Z,11.87
2022-12-15T12:04:55.944Z,11.98
2022-12-15T12:05:55.923Z,11.82
2022-12-15T12:06:55.896Z,11.98
2022-12-15T12:07:55.891Z,12.03
2022-12-15T12:08:55.875Z,12.30
2022-12-15T12:09:55.906Z,12.03
2022-12-15T12:10:55.890Z,12.14
2022-12-15T12:11:55.835Z,11.92
2022-12-15T12:12:55.822Z,11.87
2022-12-15T12:13:55.815Z,12.03
2022-12-15T12:14:55.792Z,12.14
2022-12-15T12:15:55.805Z,12.08
2022-12-15T12:16:55.775Z,12.19
2022-12-15T12:17:55.763Z,12.03
2022-12-15T12:18:55.812Z,12.03
2022-12-15T12:19:55.726Z,12.08
2022-12-15T12:20:55.745Z,12.03
2022-12-15T12:21:55.714Z,11.87
2022-12-15T12:22:55.695Z,12.19
2022-12-15T12:23:55.692Z,12.03
2022-12-15T12:24:55.674Z,12.03
2022-12-15T12:25:59.531Z,12.03
2022-12-15T12:26:56.650Z,12.25
2022-12-15T12:27:55.637Z,12.03
2022-12-15T12:28:55.616Z,12.25
2022-12-15T12:29:55.598Z,12.25
2022-12-15T12:30:55.604Z,11.82
2022-12-15T12:32:02.027Z,11.82
2022-12-15T12:32:56.565Z,11.82
2022-12-15T12:33:55.555Z,12.03
2022-12-15T12:35:30.755Z,11.87
2022-12-15T12:35:56.532Z,11.82
2022-12-15T12:36:55.506Z,12.08
2022-12-15T12:38:01.056Z,11.92
2022-12-15T12:38:56.474Z,12.03
2022-12-15T12:39:55.465Z,12.08
2022-12-15T12:40:55.472Z,12.35
2022-12-15T12:41:55.435Z,11.82
2022-12-15T12:42:55.433Z,12.03
2022-12-15T12:43:55.416Z,11.87
2022-12-15T12:44:55.394Z,11.92
2022-12-15T12:45:55.402Z,12.08
2022-12-15T12:46:55.374Z,12.03
2022-12-15T12:47:55.363Z,12.19
2022-12-15T12:48:55.351Z,12.14
2022-12-15T12:49:55.339Z,11.87
2022-12-15T12:50:55.353Z,11.82
2022-12-15T12:51:55.304Z,12.19
2022-12-15T12:52:55.303Z,11.82
2022-12-15T12:53:55.294Z,12.03